createdAt,value
2023-02-23T00:02:23.615Z,0.20
2023-02-23T00:04:52.405Z,0.20
2023-02-23T00:07:21.615Z,0.20
2023-02-23T00:09:50.951Z,0.20
2023-02-23T00:12:20.816Z,0.20
2023-02-23T00:14:49.813Z,0.20
2023-02-23T00:17:20.262Z,0.20
2023-02-23T00:19:49.478Z,0.20
2023-02-23T00:22:18.458Z,0.20
2023-02-23T00:24:48.131Z,0.10
2023-02-23T00:27:20.950Z,0.20
2023-02-23T00:29:51.125Z,-1.90
2023-02-23T00:32:21.850Z,0.10
2023-02-23T00:34:53.472Z,0.20
2023-02-23T00:37:23.551Z,0.20
2023-02-23T00:39:52.931Z,0.20
2023-02-23T00:42:21.811Z,0.10
2023-02-23T00:44:50.875Z,0.20
2023-02-23T00:47:21.097Z,0.20
2023-02-23T00:49:51.437Z,0.10
2023-02-23T00:52:21.242Z,0.10
2023-02-23T00:54:49.991Z,0.10
2023-02-23T00:57:18.808Z,0.10
2023-02-23T00:59:47.577Z,0.10
2023-02-23T01:02:17.529Z,0.10
2023-02-23T01:04:47.736Z,0.10
2023-02-23T01:07:16.608Z,0.10
2023-02-23T01:09:45.293Z,0.10
2023-02-23T01:12:14.173Z,0.10
2023-02-23T01:14:47.660Z,0.10
2023-02-23T01:17:17.969Z,0.10
2023-02-23T01:19:48.128Z,0.10
2023-02-23T01:22:16.842Z,0.10
2023-02-23T01:24:45.553Z,0.10
2023-02-23T01:27:14.257Z,0.10
2023-02-23T01:29:43.064Z,0.10
2023-02-23T01:32:12.010Z,0.00
2023-02-23T01:34:40.918Z,0.00
2023-02-23T01:37:11.080Z,0.00
2023-02-23T01:39:39.857Z,0.00
2023-02-23T01:42:13.803Z,0.00
2023-02-23T01:45:22.211Z,0.10
2023-02-23T01:47:53.012Z,0.00
2023-02-23T01:50:25.703Z,0.00
2023-02-23T01:52:59.370Z,0.00
2023-02-23T01:55:29.883Z,0.00
2023-02-23T01:58:08.119Z,0.00
2023-02-23T02:00:37.844Z,0.00
2023-02-23T02:03:14.097Z,0.00
2023-02-23T02:05:43.471Z,-0.10
2023-02-23T02:08:14.279Z,-0.10
2023-02-23T02:10:46.716Z,-0.10
2023-02-23T02:13:22.289Z,-0.10
2023-02-23T02:16:31.304Z,-0.10
2023-02-23T02:19:31.601Z,-0.10
2023-02-23T02:22:30.745Z,-0.10
2023-02-23T02:25:36.577Z,-0.10
2023-02-23T02:28:46.326Z,-0.20
2023-02-23T02:31:57.090Z,-0.20
2023-02-23T02:34:49.962Z,-0.20
2023-02-23T02:37:41.114Z,-0.20
2023-02-23T02:40:18.339Z,-0.20
2023-02-23T02:43:08.737Z,-0.20
2023-02-23T02:45:44.688Z,-0.20
2023-02-23T02:48:21.740Z,-0.20
2023-02-23T02:50:57.257Z,-0.20
2023-02-23T02:53:37.814Z,-0.20
2023-02-23T02:56:08.698Z,-0.30
2023-02-23T02:58:43.590Z,-0.30
2023-02-23T03:01:33.277Z,-0.30
2023-02-23T03:04:23.650Z,-0.20
2023-02-23T03:07:16.665Z,-0.20
2023-02-23T03:10:13.751Z,-0.30
2023-02-23T03:13:12.957Z,-0.30
2023-02-23T03:16:11.190Z,-0.30
2023-02-23T03:19:16.415Z,-0.30
2023-02-23T03:22:10.207Z,-1.40
2023-02-23T03:24:59.513Z,-0.30
2023-02-23T03:28:01.361Z,-0.30
2023-02-23T03:30:59.057Z,-0.30
2023-02-23T03:33:53.089Z,-0.30
2023-02-23T03:36:44.256Z,-0.30
2023-02-23T03:39:38.238Z,-0.30
2023-02-23T03:42:29.691Z,-0.30
2023-02-23T03:45:23.453Z,-0.30
2023-02-23T03:48:13.497Z,-0.30
2023-02-23T03:51:04.259Z,-0.30
2023-02-23T03:53:59.210Z,-0.20
2023-02-23T03:56:47.226Z,-0.30
2023-02-23T03:59:37.169Z,-0.30
2023-02-23T04:02:26.582Z,-0.30
2023-02-23T04:05:17.562Z,-0.30
2023-02-23T04:08:06.530Z,-0.30
2023-02-23T04:10:54.277Z,-0.30
2023-02-23T04:13:26.403Z,-0.30
2023-02-23T04:15:57.468Z,-0.30
2023-02-23T04:18:29.725Z,-0.30
2023-02-23T04:20:59.379Z,-0.30
2023-02-23T04:23:29.548Z,-0.30
2023-02-23T04:25:58.488Z,-0.30
2023-02-23T04:28:29.589Z,-0.30
2023-02-23T04:30:58.379Z,-0.20
2023-02-23T04:33:28.714Z,-0.20
2023-02-23T04:35:57.545Z,-0.30
2023-02-23T04:38:26.254Z,-0.20
2023-02-23T04:40:55.184Z,-0.30
2023-02-23T04:43:23.873Z,-0.30
2023-02-23T04:45:53.375Z,-0.30
2023-02-23T04:48:25.127Z,-0.30
2023-02-23T04:50:56.228Z,-0.30
2023-02-23T04:53:26.038Z,-0.30
2023-02-23T04:55:54.859Z,-0.30
2023-02-23T04:58:23.719Z,-0.30
2023-02-23T05:00:52.716Z,-0.30
2023-02-23T05:03:21.556Z,-0.30
2023-02-23T05:05:50.341Z,-0.40
2023-02-23T05:08:20.580Z,-0.40
2023-02-23T05:10:49.292Z,-0.40
2023-02-23T05:13:18.030Z,-0.40
2023-02-23T05:15:46.858Z,-0.40
2023-02-23T05:18:15.729Z,-0.40
2023-02-23T05:20:45.734Z,-0.40
2023-02-23T05:23:15.564Z,-0.40
2023-02-23T05:25:45.680Z,-0.50
2023-02-23T05:28:14.591Z,-0.40
2023-02-23T05:30:43.627Z,-0.40
2023-02-23T05:33:14.110Z,-0.40
2023-02-23T05:35:43.200Z,-0.50
2023-02-23T05:38:11.890Z,-0.50
2023-02-23T05:40:41.678Z,-0.50
2023-02-23T05:43:11.791Z,-0.50
2023-02-23T05:45:42.437Z,-0.50
2023-02-23T05:48:11.688Z,-0.50
2023-02-23T05:50:40.818Z,-0.50
2023-02-23T05:53:10.426Z,-0.50
2023-02-23T05:55:39.170Z,-0.50
2023-02-23T05:58:07.973Z,-0.50
2023-02-23T06:00:38.057Z,-0.60
2023-02-23T06:03:06.868Z,-0.60
2023-02-23T06:05:35.573Z,-0.60
2023-02-23T06:08:04.407Z,-0.60
2023-02-23T06:10:33.184Z,-0.60
2023-02-23T06:13:02.373Z,-0.60
2023-02-23T06:15:31.368Z,-0.60
2023-02-23T06:18:01.465Z,-0.50
2023-02-23T06:20:30.268Z,-0.60
2023-02-23T06:22:59.110Z,-0.50
2023-02-23T06:25:27.986Z,-0.50
2023-02-23T06:27:56.798Z,-0.50
2023-02-23T06:30:25.638Z,-0.40
2023-02-23T06:32:54.459Z,-0.40
2023-02-23T06:35:26.105Z,-0.40
2023-02-23T06:37:55.594Z,-0.30
2023-02-23T06:40:24.367Z,-0.30
2023-02-23T06:42:53.281Z,-0.30
2023-02-23T06:45:22.122Z,-0.20
2023-02-23T06:47:50.938Z,-0.20
2023-02-23T06:50:20.123Z,-0.20
2023-02-23T06:52:50.492Z,-0.10
2023-02-23T06:55:20.626Z,0.00
2023-02-23T06:57:51.529Z,0.00
2023-02-23T07:00:21.273Z,0.00
2023-02-23T07:02:49.993Z,0.10
2023-02-23T07:05:18.990Z,0.10
2023-02-23T07:07:49.090Z,0.20
2023-02-23T07:10:18.624Z,0.20
2023-02-23T07:12:47.516Z,0.30
2023-02-23T07:15:18.492Z,0.30
2023-02-23T07:17:48.955Z,0.40
2023-02-23T07:20:18.120Z,0.50
2023-02-23T07:22:46.882Z,0.50
2023-02-23T07:25:17.172Z,0.50
2023-02-23T07:27:45.903Z,0.60
2023-02-23T07:30:15.903Z,0.70
2023-02-23T07:32:44.720Z,0.80
2023-02-23T07:35:13.522Z,0.80
2023-02-23T07:37:42.215Z,0.90
2023-02-23T07:40:13.192Z,1.00
2023-02-23T07:42:44.652Z,1.10
2023-02-23T07:45:13.495Z,1.00
2023-02-23T07:47:42.288Z,1.20
2023-02-23T07:50:12.767Z,1.20
2023-02-23T07:52:44.086Z,1.30
2023-02-23T07:55:13.500Z,1.20
2023-02-23T07:57:43.596Z,1.30
2023-02-23T08:00:13.498Z,1.40
2023-02-23T08:02:42.251Z,1.30
2023-02-23T08:05:11.268Z,1.50
2023-02-23T08:07:40.040Z,1.60
2023-02-23T08:10:09.615Z,1.50
2023-02-23T08:12:38.472Z,1.60
2023-02-23T08:15:09.908Z,1.70
2023-02-23T08:17:39.656Z,1.80
2023-02-23T08:20:10.428Z,1.90
2023-02-23T08:22:48.882Z,2.00
2023-02-23T08:25:19.150Z,2.20
2023-02-23T08:27:48.225Z,2.10
2023-02-23T08:30:19.848Z,2.30
2023-02-23T08:32:49.062Z,2.30
2023-02-23T08:35:18.686Z,2.30
2023-02-23T08:37:47.848Z,2.30
2023-02-23T08:40:18.340Z,2.50
2023-02-23T08:42:48.612Z,2.60
2023-02-23T08:45:19.931Z,2.70
2023-02-23T08:47:48.714Z,2.80
2023-02-23T08:50:17.554Z,2.90
2023-02-23T08:52:46.300Z,2.80
2023-02-23T08:55:18.145Z,3.00
2023-02-23T08:57:46.867Z,2.90
2023-02-23T09:00:16.793Z,3.00
2023-02-23T09:02:48.707Z,3.20
2023-02-23T09:05:18.133Z,3.40
2023-02-23T09:07:47.658Z,3.50
2023-02-23T09:10:19.804Z,3.50
2023-02-23T09:12:48.572Z,3.70
2023-02-23T09:15:17.479Z,3.70
2023-02-23T09:17:48.022Z,3.80
2023-02-23T09:20:18.562Z,3.90
2023-02-23T09:22:49.653Z,3.80
2023-02-23T09:25:22.037Z,3.90
2023-02-23T09:27:51.836Z,3.80
2023-02-23T09:30:22.212Z,3.90
2023-02-23T09:32:52.541Z,4.00
2023-02-23T09:35:23.602Z,3.90
2023-02-23T09:37:54.887Z,4.00
2023-02-23T09:40:26.515Z,4.00
2023-02-23T09:43:02.165Z,4.10
2023-02-23T09:45:40.658Z,4.10
2023-02-23T09:48:18.992Z,4.30
2023-02-23T09:50:51.379Z,4.50
2023-02-23T09:53:33.979Z,4.60
2023-02-23T09:56:07.273Z,4.60
2023-02-23T09:58:36.728Z,4.60
2023-02-23T10:01:51.666Z,4.70
2023-02-23T10:04:24.301Z,4.80
2023-02-23T10:06:59.329Z,5.00
2023-02-23T10:09:41.138Z,5.00
2023-02-23T10:12:15.343Z,5.00
2023-02-23T10:15:07.434Z,5.20
2023-02-23T10:17:41.246Z,5.20
2023-02-23T10:20:21.534Z,5.20
2023-02-23T10:22:52.390Z,5.30
2023-02-23T10:25:26.268Z,5.20
2023-02-23T10:27:57.591Z,5.40
2023-02-23T10:30:29.849Z,5.40
2023-02-23T10:33:04.290Z,5.40
2023-02-23T10:35:35.498Z,5.70
2023-02-23T10:38:04.286Z,5.70
2023-02-23T10:40:35.775Z,5.60
2023-02-23T10:43:05.111Z,5.60
2023-02-23T10:45:40.640Z,5.50
2023-02-23T10:48:16.323Z,5.70
2023-02-23T10:50:49.471Z,5.70
2023-02-23T10:53:23.321Z,5.80
2023-02-23T10:56:04.568Z,5.90
2023-02-23T10:58:40.485Z,6.00
2023-02-23T11:01:10.744Z,6.00
2023-02-23T11:03:43.059Z,6.00
2023-02-23T11:06:30.128Z,6.00
2023-02-23T11:08:58.995Z,6.00
2023-02-23T11:11:29.685Z,5.90
2023-02-23T11:13:59.194Z,5.90
2023-02-23T11:16:31.105Z,5.90
2023-02-23T11:19:01.739Z,5.90
2023-02-23T11:21:34.516Z,6.00
2023-02-23T11:24:14.337Z,6.20
2023-02-23T11:26:45.242Z,6.20
2023-02-23T11:29:18.446Z,6.40
2023-02-23T11:31:51.034Z,6.60
2023-02-23T11:34:25.196Z,6.90
2023-02-23T11:37:04.817Z,7.20
2023-02-23T11:39:34.193Z,7.20
2023-02-23T11:42:16.301Z,7.50
2023-02-23T11:44:50.544Z,7.60
2023-02-23T11:47:22.623Z,7.70
2023-02-23T11:49:52.359Z,7.60
2023-02-23T11:52:24.844Z,7.60
2023-02-23T11:54:57.303Z,7.50
2023-02-23T11:57:30.068Z,7.50
2023-02-23T12:00:00.361Z,7.50
2023-02-23T12:02:30.986Z,7.50
2023-02-23T12:05:08.888Z,7.60
2023-02-23T12:07:42.530Z,7.60
2023-02-23T12:10:19.608Z,7.50
2023-02-23T12:13:06.639Z,7.60
2023-02-23T12:15:45.060Z,7.70
2023-02-23T12:18:24.649Z,7.80
2023-02-23T12:20:56.702Z,7.90
2023-02-23T12:23:31.753Z,7.70
2023-02-23T12:26:06.119Z,7.80
2023-02-23T12:28:40.578Z,7.70
2023-02-23T12:31:23.439Z,7.60
2023-02-23T12:33:56.868Z,7.90
2023-02-23T12:36:33.286Z,8.10
2023-02-23T12:39:08.161Z,8.10
2023-02-23T12:41:41.235Z,8.00
2023-02-23T12:44:20.328Z,8.10
2023-02-23T12:46:53.040Z,8.20
2023-02-23T12:49:31.240Z,8.20
2023-02-23T12:52:06.723Z,8.30
2023-02-23T12:54:37.266Z,8.20
2023-02-23T12:57:19.508Z,8.30
2023-02-23T13:00:30.381Z,8.50
2023-02-23T13:03:27.060Z,8.70
2023-02-23T13:06:03.421Z,8.60
2023-02-23T13:08:51.807Z,8.50
2023-02-23T13:11:30.773Z,8.60
2023-02-23T13:14:05.861Z,8.50
2023-02-23T13:16:37.135Z,8.60
2023-02-23T13:19:15.266Z,8.70
2023-02-23T13:21:49.041Z,8.60
2023-02-23T13:24:21.662Z,8.80
2023-02-23T13:27:00.376Z,8.70
2023-02-23T13:29:36.596Z,8.80
2023-02-23T13:32:11.270Z,8.90
2023-02-23T13:34:45.615Z,9.00
2023-02-23T13:37:18.149Z,9.00
2023-02-23T13:39:56.774Z,8.90
2023-02-23T13:42:37.352Z,9.00
2023-02-23T13:45:25.800Z,9.20
2023-02-23T13:47:59.737Z,9.20
2023-02-23T13:50:32.769Z,9.10
2023-02-23T13:53:04.921Z,9.00
2023-02-23T13:55:50.001Z,9.00
2023-02-23T13:58:25.870Z,9.20
2023-02-23T14:01:04.451Z,9.20
2023-02-23T14:03:37.698Z,10.00
2023-02-23T14:06:07.796Z,9.00
2023-02-23T14:08:38.914Z,9.00
2023-02-23T14:11:08.185Z,9.10
2023-02-23T14:13:42.928Z,9.10
2023-02-23T14:16:21.032Z,9.00
2023-02-23T14:19:11.444Z,9.00
2023-02-23T14:21:49.931Z,9.10
2023-02-23T14:24:22.479Z,9.00
2023-02-23T14:27:34.217Z,8.90
2023-02-23T14:30:25.420Z,8.90
2023-02-23T14:32:54.890Z,8.70
2023-02-23T14:35:44.606Z,8.70
2023-02-23T14:38:45.799Z,8.70
2023-02-23T14:41:22.062Z,8.70
2023-02-23T14:43:54.977Z,8.70
2023-02-23T14:46:26.129Z,8.70
2023-02-23T14:49:01.320Z,8.80
2023-02-23T14:51:42.029Z,8.80
2023-02-23T14:54:25.599Z,8.70
2023-02-23T14:56:58.204Z,8.70
2023-02-23T14:59:29.713Z,8.90
2023-02-23T15:02:01.942Z,8.90
2023-02-23T15:04:31.689Z,8.90
2023-02-23T15:07:02.660Z,8.90
2023-02-23T15:09:36.864Z,8.90
2023-02-23T15:12:15.105Z,8.90
2023-02-23T15:14:44.723Z,8.90
2023-02-23T15:17:20.759Z,8.80
2023-02-23T15:19:51.412Z,8.80
2023-02-23T15:22:27.402Z,8.80
2023-02-23T15:25:00.035Z,8.80
2023-02-23T15:27:32.457Z,8.80
2023-02-23T15:30:18.864Z,8.80
2023-02-23T15:32:49.653Z,8.80
2023-02-23T15:35:18.658Z,8.70
2023-02-23T15:37:59.469Z,8.80
2023-02-23T15:40:39.731Z,8.70
2023-02-23T15:43:13.112Z,8.70
2023-02-23T15:45:46.656Z,8.60
2023-02-23T15:48:22.782Z,8.60
2023-02-23T15:50:54.903Z,8.40
2023-02-23T15:53:30.261Z,8.40
2023-02-23T15:56:05.149Z,8.30
2023-02-23T15:58:50.930Z,8.30
2023-02-23T16:01:26.171Z,8.30
2023-02-23T16:04:02.691Z,8.20
2023-02-23T16:06:36.897Z,8.20
2023-02-23T16:09:20.978Z,8.00
2023-02-23T16:11:52.065Z,7.90
2023-02-23T16:14:22.074Z,7.70
2023-02-23T16:17:08.367Z,7.60
2023-02-23T16:19:42.151Z,7.50
2023-02-23T16:22:24.660Z,7.60
2023-02-23T16:25:08.666Z,7.60
2023-02-23T16:27:39.343Z,7.70
2023-02-23T16:30:23.313Z,7.50
2023-02-23T16:33:07.363Z,7.50
2023-02-23T16:35:40.148Z,7.60
2023-02-23T16:38:14.511Z,7.50
2023-02-23T16:40:45.100Z,7.40
2023-02-23T16:43:13.843Z,7.40
2023-02-23T16:45:44.229Z,7.40
2023-02-23T16:48:16.306Z,7.30
2023-02-23T16:50:47.812Z,7.10
2023-02-23T16:53:16.987Z,7.00
2023-02-23T16:55:52.078Z,7.00
2023-02-23T16:58:24.716Z,7.00
2023-02-23T17:00:54.013Z,7.00
2023-02-23T17:03:25.110Z,6.90
2023-02-23T17:05:56.082Z,6.80
2023-02-23T17:08:26.220Z,6.80
2023-02-23T17:10:57.410Z,6.80
2023-02-23T17:13:29.083Z,6.80
2023-02-23T17:15:58.060Z,6.80
2023-02-23T17:18:28.839Z,6.70
2023-02-23T17:21:01.258Z,6.70
2023-02-23T17:23:38.416Z,6.70
2023-02-23T17:26:08.691Z,6.60
2023-02-23T17:28:37.707Z,6.60
2023-02-23T17:31:07.859Z,6.70
2023-02-23T17:33:37.842Z,6.80
2023-02-23T17:36:10.485Z,6.80
2023-02-23T17:38:39.296Z,6.70
2023-02-23T17:41:09.633Z,6.70
2023-02-23T17:43:38.674Z,6.70
2023-02-23T17:46:07.634Z,6.70
2023-02-23T17:48:36.647Z,6.70
2023-02-23T17:51:13.486Z,6.70
2023-02-23T17:53:42.405Z,6.70
2023-02-23T17:56:12.058Z,6.70
2023-02-23T17:58:40.926Z,6.70
2023-02-23T18:01:10.277Z,6.80
2023-02-23T18:03:39.190Z,6.80
2023-02-23T18:06:11.514Z,6.70
2023-02-23T18:08:42.418Z,6.70
2023-02-23T18:11:11.758Z,6.80
2023-02-23T18:13:40.602Z,6.70
2023-02-23T18:16:11.599Z,6.60
2023-02-23T18:18:43.203Z,6.70
2023-02-23T18:21:16.252Z,6.60
2023-02-23T18:23:45.063Z,6.70
2023-02-23T18:26:16.505Z,6.60
2023-02-23T18:28:46.247Z,6.70
2023-02-23T18:31:16.319Z,6.80
2023-02-23T18:33:46.392Z,6.80
2023-02-23T18:36:21.119Z,6.90
2023-02-23T18:38:50.145Z,6.80
2023-02-23T18:41:19.983Z,6.70
2023-02-23T18:43:49.466Z,6.60
2023-02-23T18:46:18.845Z,6.60
2023-02-23T18:48:50.474Z,6.60
2023-02-23T18:51:22.480Z,6.50
2023-02-23T18:53:52.631Z,6.50
2023-02-23T18:56:25.139Z,6.50
2023-02-23T18:58:55.221Z,6.40
2023-02-23T19:01:26.804Z,6.40
2023-02-23T19:03:57.976Z,6.40
2023-02-23T19:06:29.430Z,6.40
2023-02-23T19:08:59.986Z,6.40
2023-02-23T19:11:30.620Z,6.40
2023-02-23T19:14:01.641Z,6.40
2023-02-23T19:16:32.297Z,6.40
2023-02-23T19:19:01.664Z,6.40
2023-02-23T19:21:32.737Z,6.40
2023-02-23T19:24:02.926Z,6.50
2023-02-23T19:26:33.680Z,6.40
2023-02-23T19:29:02.835Z,6.40
2023-02-23T19:31:31.833Z,6.40
2023-02-23T19:34:03.310Z,6.40
2023-02-23T19:36:34.484Z,6.40
2023-02-23T19:39:10.653Z,6.40
2023-02-23T19:41:40.782Z,6.40
2023-02-23T19:44:10.089Z,6.40
2023-02-23T19:46:39.935Z,6.40
2023-02-23T19:49:08.864Z,6.40
2023-02-23T19:51:39.265Z,6.40
2023-02-23T19:54:08.215Z,6.40
2023-02-23T19:56:38.051Z,6.40
2023-02-23T19:59:07.145Z,6.40
2023-02-23T20:01:36.148Z,6.40
2023-02-23T20:04:06.980Z,6.50
2023-02-23T20:06:40.935Z,6.40
2023-02-23T20:09:10.237Z,6.40
2023-02-23T20:11:39.096Z,6.40
2023-02-23T20:14:08.540Z,6.40
2023-02-23T20:16:37.682Z,6.40
2023-02-23T20:19:07.678Z,6.40
2023-02-23T20:21:39.661Z,6.50
2023-02-23T20:24:09.013Z,6.40
2023-02-23T20:26:38.140Z,6.40
2023-02-23T20:29:10.722Z,6.40
2023-02-23T20:31:44.907Z,6.40
2023-02-23T20:34:14.447Z,6.40
2023-02-23T20:36:45.452Z,6.30
2023-02-23T20:39:16.928Z,6.30
2023-02-23T20:41:47.675Z,6.30
2023-02-23T20:44:17.480Z,6.30
2023-02-23T20:46:46.285Z,6.30
2023-02-23T20:49:18.497Z,6.30
2023-02-23T20:51:49.925Z,6.30
2023-02-23T20:54:19.514Z,6.30
2023-02-23T20:56:58.930Z,6.30
2023-02-23T20:59:30.808Z,6.40
2023-02-23T21:02:01.847Z,6.30
2023-02-23T21:04:30.728Z,6.30
2023-02-23T21:07:01.577Z,6.40
2023-02-23T21:09:30.483Z,6.40
2023-02-23T21:11:59.524Z,6.40
2023-02-23T21:14:28.405Z,6.50
2023-02-23T21:16:57.263Z,6.40
2023-02-23T21:19:26.169Z,6.40
2023-02-23T21:21:58.415Z,6.60
2023-02-23T21:24:30.298Z,6.60
2023-02-23T21:26:59.061Z,6.60
2023-02-23T21:29:27.992Z,6.60
2023-02-23T21:31:57.020Z,6.60
2023-02-23T21:34:25.950Z,6.70
2023-02-23T21:36:55.309Z,6.60
2023-02-23T21:39:28.106Z,6.60
2023-02-23T21:41:58.899Z,6.70
2023-02-23T21:44:27.914Z,6.70
2023-02-23T21:46:56.894Z,6.60
2023-02-23T21:49:25.832Z,6.60
2023-02-23T21:51:55.302Z,6.60
2023-02-23T21:54:24.192Z,6.70
2023-02-23T21:56:52.989Z,6.70
2023-02-23T21:59:23.287Z,6.70
2023-02-23T22:01:52.246Z,6.70
2023-02-23T22:04:21.064Z,6.70
2023-02-23T22:06:49.793Z,6.80
2023-02-23T22:09:18.631Z,6.80
2023-02-23T22:11:48.754Z,6.80
2023-02-23T22:14:18.939Z,6.80
2023-02-23T22:16:49.794Z,6.80
2023-02-23T22:19:19.627Z,6.80
2023-02-23T22:21:49.076Z,6.80
2023-02-23T22:24:18.778Z,6.80
2023-02-23T22:26:54.912Z,6.80
2023-02-23T22:29:25.938Z,6.80
2023-02-23T22:31:56.688Z,6.80
2023-02-23T22:34:25.918Z,6.80
2023-02-23T22:36:54.715Z,6.80
2023-02-23T22:39:23.629Z,6.80
2023-02-23T22:41:52.540Z,6.80
2023-02-23T22:44:22.749Z,6.80
2023-02-23T22:46:53.118Z,6.90
2023-02-23T22:49:24.532Z,6.90
2023-02-23T22:51:53.328Z,6.90
2023-02-23T22:54:24.120Z,6.80
2023-02-23T22:56:53.347Z,6.80
2023-02-23T22:59:22.181Z,6.80
2023-02-23T23:01:51.030Z,6.80
2023-02-23T23:04:22.179Z,6.80
2023-02-23T23:06:52.940Z,6.80
2023-02-23T23:09:22.174Z,6.90
2023-02-23T23:11:52.001Z,6.90
2023-02-23T23:14:21.112Z,6.80
2023-02-23T23:16:50.819Z,6.90
2023-02-23T23:19:24.275Z,6.90
2023-02-23T23:21:56.464Z,6.90
2023-02-23T23:24:26.461Z,6.90
2023-02-23T23:27:01.047Z,6.90
2023-02-23T23:29:30.845Z,7.00
2023-02-23T23:32:01.678Z,6.90
2023-02-23T23:34:33.614Z,7.00
2023-02-23T23:37:04.340Z,7.00
2023-02-23T23:39:33.527Z,7.00
2023-02-23T23:42:03.696Z,7.00
2023-02-23T23:44:33.912Z,7.00
2023-02-23T23:47:05.580Z,7.00
2023-02-23T23:49:38.008Z,7.00
2023-02-23T23:52:08.625Z,7.00
2023-02-23T23:54:41.277Z,7.10
2023-02-23T23:57:11.497Z,7.00
2023-02-23T23:59:46.097Z,7.10
